sensor_id;sensor_type;location;lat;lon;timestamp;P1;durP1;ratioP1;P2;durP2;ratioP2
57746;SDS011;43580;44.014;20.466;2022-11-20T00:00:19;25.05;;;17.88;;
57746;SDS011;43580;44.014;20.466;2022-11-20T00:02:47;35.65;;;25.13;;
57746;SDS011;43580;44.014;20.466;2022-11-20T00:05:13;36.72;;;23.20;;
57746;SDS011;43580;44.014;20.466;2022-11-20T00:07:39;21.40;;;14.80;;
57746;SDS011;43580;44.014;20.466;2022-11-20T00:10:08;26.65;;;16.63;;
57746;SDS011;43580;44.014;20.466;2022-11-20T00:12:36;33.80;;;21.40;;
57746;SDS011;43580;44.014;20.466;2022-11-20T00:15:03;30.98;;;21.05;;
57746;SDS011;43580;44.014;20.466;2022-11-20T00:17:29;34.15;;;22.77;;
57746;SDS011;43580;44.014;20.466;2022-11-20T00:19:55;52.53;;;35.13;;
57746;SDS011;43580;44.014;20.466;2022-11-20T00:22:21;37.85;;;25.75;;
57746;SDS011;43580;44.014;20.466;2022-11-20T00:24:47;25.40;;;16.50;;
57746;SDS011;43580;44.014;20.466;2022-11-20T00:27:13;25.85;;;14.63;;
57746;SDS011;43580;44.014;20.466;2022-11-20T00:29:39;17.45;;;12.63;;
57746;SDS011;43580;44.014;20.466;2022-11-20T00:32:05;25.33;;;16.70;;
57746;SDS011;43580;44.014;20.466;2022-11-20T00:34:32;24.30;;;16.83;;
57746;SDS011;43580;44.014;20.466;2022-11-20T00:36:58;21.58;;;13.75;;
57746;SDS011;43580;44.014;20.466;2022-11-20T00:39:24;23.02;;;14.57;;
57746;SDS011;43580;44.014;20.466;2022-11-20T00:41:55;16.30;;;11.20;;
57746;SDS011;43580;44.014;20.466;2022-11-20T00:44:21;11.65;;;8.07;;
57746;SDS011;43580;44.014;20.466;2022-11-20T00:46:47;12.27;;;5.88;;
57746;SDS011;43580;44.014;20.466;2022-11-20T00:49:13;12.60;;;8.65;;
57746;SDS011;43580;44.014;20.466;2022-11-20T00:51:39;23.00;;;15.38;;
57746;SDS011;43580;44.014;20.466;2022-11-20T00:54:05;18.63;;;11.75;;
57746;SDS011;43580;44.014;20.466;2022-11-20T00:56:31;20.40;;;12.25;;
57746;SDS011;43580;44.014;20.466;2022-11-20T00:58:58;21.00;;;15.02;;
57746;SDS011;43580;44.014;20.466;2022-11-20T01:01:27;43.65;;;32.53;;
57746;SDS011;43580;44.014;20.466;2022-11-20T01:03:57;36.58;;;27.05;;
57746;SDS011;43580;44.014;20.466;2022-11-20T01:06:24;35.88;;;26.13;;
57746;SDS011;43580;44.014;20.466;2022-11-20T01:08:52;27.35;;;19.52;;
57746;SDS011;43580;44.014;20.466;2022-11-20T01:11:20;28.13;;;21.40;;
57746;SDS011;43580;44.014;20.466;2022-11-20T01:13:46;39.13;;;27.05;;
57746;SDS011;43580;44.014;20.466;2022-11-20T01:16:17;31.85;;;21.92;;
57746;SDS011;43580;44.014;20.466;2022-11-20T01:18:46;44.75;;;30.77;;
57746;SDS011;43580;44.014;20.466;2022-11-20T01:21:14;23.95;;;17.55;;
57746;SDS011;43580;44.014;20.466;2022-11-20T01:23:43;32.30;;;21.98;;
57746;SDS011;43580;44.014;20.466;2022-11-20T01:26:11;27.85;;;19.55;;
57746;SDS011;43580;44.014;20.466;2022-11-20T01:28:37;31.13;;;20.52;;
57746;SDS011;43580;44.014;20.466;2022-11-20T01:31:16;31.17;;;19.65;;
57746;SDS011;43580;44.014;20.466;2022-11-20T01:33:42;29.27;;;19.50;;
57746;SDS011;43580;44.014;20.466;2022-11-20T01:36:12;25.88;;;17.27;;
57746;SDS011;43580;44.014;20.466;2022-11-20T01:38:41;28.45;;;18.27;;
57746;SDS011;43580;44.014;20.466;2022-11-20T01:41:09;25.52;;;14.68;;
57746;SDS011;43580;44.014;20.466;2022-11-20T01:43:59;21.00;;;14.55;;
57746;SDS011;43580;44.014;20.466;2022-11-20T01:46:25;15.98;;;11.55;;
57746;SDS011;43580;44.014;20.466;2022-11-20T01:48:56;17.58;;;12.02;;
57746;SDS011;43580;44.014;20.466;2022-11-20T01:51:28;18.90;;;13.93;;
57746;SDS011;43580;44.014;20.466;2022-11-20T01:53:55;19.58;;;15.82;;
57746;SDS011;43580;44.014;20.466;2022-11-20T01:56:23;51.92;;;39.33;;
57746;SDS011;43580;44.014;20.466;2022-11-20T01:58:51;17.40;;;12.77;;
57746;SDS011;43580;44.014;20.466;2022-11-20T02:01:20;23.48;;;19.13;;
57746;SDS011;43580;44.014;20.466;2022-11-20T02:03:46;30.30;;;22.13;;
57746;SDS011;43580;44.014;20.466;2022-11-20T02:06:19;38.53;;;29.65;;
57746;SDS011;43580;44.014;20.466;2022-11-20T02:08:49;30.55;;;22.30;;
57746;SDS011;43580;44.014;20.466;2022-11-20T02:11:15;37.95;;;27.60;;
57746;SDS011;43580;44.014;20.466;2022-11-20T02:13:41;30.25;;;22.40;;
57746;SDS011;43580;44.014;20.466;2022-11-20T02:16:11;48.25;;;37.38;;
57746;SDS011;43580;44.014;20.466;2022-11-20T02:18:38;44.42;;;34.05;;
57746;SDS011;43580;44.014;20.466;2022-11-20T02:21:15;28.17;;;21.33;;
57746;SDS011;43580;44.014;20.466;2022-11-20T02:26:22;35.63;;;25.67;;
57746;SDS011;43580;44.014;20.466;2022-11-20T02:28:48;48.92;;;35.97;;
57746;SDS011;43580;44.014;20.466;2022-11-20T02:31:15;58.60;;;41.80;;
57746;SDS011;43580;44.014;20.466;2022-11-20T02:33:41;36.22;;;27.10;;
57746;SDS011;43580;44.014;20.466;2022-11-20T02:36:08;28.90;;;22.40;;
57746;SDS011;43580;44.014;20.466;2022-11-20T02:38:36;42.47;;;30.70;;
57746;SDS011;43580;44.014;20.466;2022-11-20T02:41:02;90.63;;;63.83;;
57746;SDS011;43580;44.014;20.466;2022-11-20T02:43:28;51.33;;;36.80;;
57746;SDS011;43580;44.014;20.466;2022-11-20T02:45:54;64.50;;;46.78;;
57746;SDS011;43580;44.014;20.466;2022-11-20T02:48:20;60.80;;;42.97;;
57746;SDS011;43580;44.014;20.466;2022-11-20T02:50:46;69.55;;;49.88;;
57746;SDS011;43580;44.014;20.466;2022-11-20T02:53:12;66.82;;;49.70;;
57746;SDS011;43580;44.014;20.466;2022-11-20T02:55:38;109.95;;;83.68;;
57746;SDS011;43580;44.014;20.466;2022-11-20T02:58:04;69.45;;;48.15;;
57746;SDS011;43580;44.014;20.466;2022-11-20T03:00:30;64.05;;;41.05;;
57746;SDS011;43580;44.014;20.466;2022-11-20T03:02:57;30.73;;;23.63;;
57746;SDS011;43580;44.014;20.466;2022-11-20T03:05:23;51.78;;;36.60;;
57746;SDS011;43580;44.014;20.466;2022-11-20T03:07:49;60.22;;;43.85;;
57746;SDS011;43580;44.014;20.466;2022-11-20T03:10:15;54.35;;;39.72;;
57746;SDS011;43580;44.014;20.466;2022-11-20T03:12:41;38.95;;;29.20;;
57746;SDS011;43580;44.014;20.466;2022-11-20T03:15:07;65.65;;;50.45;;
57746;SDS011;43580;44.014;20.466;2022-11-20T03:17:33;46.85;;;33.65;;
57746;SDS011;43580;44.014;20.466;2022-11-20T03:20:02;37.45;;;28.15;;
57746;SDS011;43580;44.014;20.466;2022-11-20T03:22:33;47.63;;;32.92;;
57746;SDS011;43580;44.014;20.466;2022-11-20T03:25:00;35.28;;;26.13;;
57746;SDS011;43580;44.014;20.466;2022-11-20T03:27:31;28.58;;;23.42;;
57746;SDS011;43580;44.014;20.466;2022-11-20T03:29:57;27.42;;;19.88;;
57746;SDS011;43580;44.014;20.466;2022-11-20T03:32:23;35.38;;;25.17;;
57746;SDS011;43580;44.014;20.466;2022-11-20T03:34:49;24.92;;;17.48;;
57746;SDS011;43580;44.014;20.466;2022-11-20T03:37:15;37.08;;;30.27;;
57746;SDS011;43580;44.014;20.466;2022-11-20T03:39:44;29.48;;;20.98;;
57746;SDS011;43580;44.014;20.466;2022-11-20T03:42:10;38.85;;;30.70;;
57746;SDS011;43580;44.014;20.466;2022-11-20T03:44:56;25.55;;;18.25;;
57746;SDS011;43580;44.014;20.466;2022-11-20T03:47:22;33.83;;;27.73;;
57746;SDS011;43580;44.014;20.466;2022-11-20T03:49:48;35.40;;;24.67;;
57746;SDS011;43580;44.014;20.466;2022-11-20T03:52:14;35.33;;;30.75;;
57746;SDS011;43580;44.014;20.466;2022-11-20T03:54:40;30.73;;;21.83;;
57746;SDS011;43580;44.014;20.466;2022-11-20T03:57:06;40.50;;;28.05;;
57746;SDS011;43580;44.014;20.466;2022-11-20T03:59:35;20.90;;;15.98;;
57746;SDS011;43580;44.014;20.466;2022-11-20T04:02:01;29.50;;;23.67;;
57746;SDS011;43580;44.014;20.466;2022-11-20T04:04:27;23.17;;;18.65;;
57746;SDS011;43580;44.014;20.466;2022-11-20T04:06:53;22.85;;;15.48;;
57746;SDS011;43580;44.014;20.466;2022-11-20T04:09:19;21.35;;;15.10;;
57746;SDS011;43580;44.014;20.466;2022-11-20T04:11:45;33.03;;;29.08;;
57746;SDS011;43580;44.014;20.466;2022-11-20T04:14:14;28.45;;;20.17;;
57746;SDS011;43580;44.014;20.466;2022-11-20T04:16:41;26.75;;;19.75;;
57746;SDS011;43580;44.014;20.466;2022-11-20T04:19:11;27.65;;;19.58;;
57746;SDS011;43580;44.014;20.466;2022-11-20T04:21:38;26.85;;;18.38;;
57746;SDS011;43580;44.014;20.466;2022-11-20T04:24:04;25.75;;;18.40;;
57746;SDS011;43580;44.014;20.466;2022-11-20T04:26:30;25.25;;;18.27;;
57746;SDS011;43580;44.014;20.466;2022-11-20T04:28:56;20.65;;;15.88;;
57746;SDS011;43580;44.014;20.466;2022-11-20T04:31:24;30.30;;;18.35;;
57746;SDS011;43580;44.014;20.466;2022-11-20T04:33:50;29.40;;;20.52;;
57746;SDS011;43580;44.014;20.466;2022-11-20T04:36:18;25.77;;;17.88;;
57746;SDS011;43580;44.014;20.466;2022-11-20T04:38:44;31.17;;;21.05;;
57746;SDS011;43580;44.014;20.466;2022-11-20T04:41:15;32.75;;;19.75;;
57746;SDS011;43580;44.014;20.466;2022-11-20T04:43:47;37.03;;;23.63;;
57746;SDS011;43580;44.014;20.466;2022-11-20T04:46:14;55.03;;;36.55;;
57746;SDS011;43580;44.014;20.466;2022-11-20T04:48:40;57.50;;;38.47;;
57746;SDS011;43580;44.014;20.466;2022-11-20T04:51:06;36.35;;;25.30;;
57746;SDS011;43580;44.014;20.466;2022-11-20T04:53:32;34.83;;;23.17;;
57746;SDS011;43580;44.014;20.466;2022-11-20T04:55:59;32.58;;;22.40;;
57746;SDS011;43580;44.014;20.466;2022-11-20T04:58:25;39.05;;;28.38;;
57746;SDS011;43580;44.014;20.466;2022-11-20T05:00:51;30.88;;;21.48;;
57746;SDS011;43580;44.014;20.466;2022-11-20T05:03:17;59.50;;;37.33;;
57746;SDS011;43580;44.014;20.466;2022-11-20T05:05:43;34.97;;;24.00;;
57746;SDS011;43580;44.014;20.466;2022-11-20T05:08:09;40.63;;;27.40;;
57746;SDS011;43580;44.014;20.466;2022-11-20T05:10:38;44.42;;;29.30;;
57746;SDS011;43580;44.014;20.466;2022-11-20T05:13:04;22.58;;;15.73;;
57746;SDS011;43580;44.014;20.466;2022-11-20T05:15:30;48.05;;;33.03;;
57746;SDS011;43580;44.014;20.466;2022-11-20T05:17:56;24.58;;;16.17;;
57746;SDS011;43580;44.014;20.466;2022-11-20T05:20:24;24.10;;;15.95;;
57746;SDS011;43580;44.014;20.466;2022-11-20T05:22:50;23.23;;;16.20;;
57746;SDS011;43580;44.014;20.466;2022-11-20T05:25:16;17.42;;;12.10;;
57746;SDS011;43580;44.014;20.466;2022-11-20T05:27:42;22.48;;;13.85;;
57746;SDS011;43580;44.014;20.466;2022-11-20T05:30:09;26.35;;;13.63;;
57746;SDS011;43580;44.014;20.466;2022-11-20T05:32:35;34.90;;;19.23;;
57746;SDS011;43580;44.014;20.466;2022-11-20T05:35:01;36.75;;;20.30;;
57746;SDS011;43580;44.014;20.466;2022-11-20T05:37:27;38.13;;;20.30;;
57746;SDS011;43580;44.014;20.466;2022-11-20T05:39:53;43.03;;;19.67;;
57746;SDS011;43580;44.014;20.466;2022-11-20T05:42:19;71.75;;;29.77;;
57746;SDS011;43580;44.014;20.466;2022-11-20T05:44:58;69.10;;;29.52;;
57746;SDS011;43580;44.014;20.466;2022-11-20T05:47:24;87.43;;;31.20;;
57746;SDS011;43580;44.014;20.466;2022-11-20T05:49:51;112.25;;;41.55;;
57746;SDS011;43580;44.014;20.466;2022-11-20T05:52:22;120.95;;;39.53;;
57746;SDS011;43580;44.014;20.466;2022-11-20T05:54:48;273.92;;;125.45;;
57746;SDS011;43580;44.014;20.466;2022-11-20T05:57:14;142.10;;;48.33;;
57746;SDS011;43580;44.014;20.466;2022-11-20T05:59:40;112.35;;;37.45;;
57746;SDS011;43580;44.014;20.466;2022-11-20T06:02:06;122.03;;;41.67;;
57746;SDS011;43580;44.014;20.466;2022-11-20T06:04:32;129.45;;;44.13;;
57746;SDS011;43580;44.014;20.466;2022-11-20T06:07:00;128.60;;;40.63;;
57746;SDS011;43580;44.014;20.466;2022-11-20T06:09:29;127.10;;;47.20;;
57746;SDS011;43580;44.014;20.466;2022-11-20T06:11:55;141.02;;;41.03;;
57746;SDS011;43580;44.014;20.466;2022-11-20T06:14:21;204.85;;;79.88;;
57746;SDS011;43580;44.014;20.466;2022-11-20T06:16:47;354.63;;;212.35;;
57746;SDS011;43580;44.014;20.466;2022-11-20T06:19:13;187.75;;;55.33;;
57746;SDS011;43580;44.014;20.466;2022-11-20T06:21:40;161.57;;;75.75;;
57746;SDS011;43580;44.014;20.466;2022-11-20T06:24:06;285.60;;;84.35;;
57746;SDS011;43580;44.014;20.466;2022-11-20T06:26:32;141.90;;;43.83;;
57746;SDS011;43580;44.014;20.466;2022-11-20T06:28:58;153.48;;;52.05;;
57746;SDS011;43580;44.014;20.466;2022-11-20T06:31:27;239.52;;;111.60;;
57746;SDS011;43580;44.014;20.466;2022-11-20T06:33:53;305.50;;;150.52;;
57746;SDS011;43580;44.014;20.466;2022-11-20T06:36:20;139.23;;;44.60;;
57746;SDS011;43580;44.014;20.466;2022-11-20T06:38:46;180.70;;;82.75;;
57746;SDS011;43580;44.014;20.466;2022-11-20T06:41:14;164.20;;;55.80;;
57746;SDS011;43580;44.014;20.466;2022-11-20T06:43:40;155.55;;;48.65;;
57746;SDS011;43580;44.014;20.466;2022-11-20T06:46:09;266.65;;;117.35;;
57746;SDS011;43580;44.014;20.466;2022-11-20T06:48:36;203.45;;;81.32;;
57746;SDS011;43580;44.014;20.466;2022-11-20T06:51:03;232.85;;;116.43;;
57746;SDS011;43580;44.014;20.466;2022-11-20T06:53:29;185.25;;;63.30;;
57746;SDS011;43580;44.014;20.466;2022-11-20T06:55:55;260.17;;;91.30;;
57746;SDS011;43580;44.014;20.466;2022-11-20T06:58:28;179.60;;;83.18;;
57746;SDS011;43580;44.014;20.466;2022-11-20T07:00:58;158.60;;;84.72;;
57746;SDS011;43580;44.014;20.466;2022-11-20T07:03:24;227.40;;;134.60;;
57746;SDS011;43580;44.014;20.466;2022-11-20T07:05:50;170.25;;;90.80;;
57746;SDS011;43580;44.014;20.466;2022-11-20T07:08:16;123.00;;;45.97;;
57746;SDS011;43580;44.014;20.466;2022-11-20T07:10:42;123.40;;;56.08;;
57746;SDS011;43580;44.014;20.466;2022-11-20T07:13:08;86.78;;;39.45;;
57746;SDS011;43580;44.014;20.466;2022-11-20T07:15:34;83.85;;;38.38;;
57746;SDS011;43580;44.014;20.466;2022-11-20T07:18:01;80.03;;;38.70;;
57746;SDS011;43580;44.014;20.466;2022-11-20T07:20:27;68.97;;;40.85;;
57746;SDS011;43580;44.014;20.466;2022-11-20T07:22:54;56.47;;;34.47;;
57746;SDS011;43580;44.014;20.466;2022-11-20T07:25:20;48.33;;;26.73;;
57746;SDS011;43580;44.014;20.466;2022-11-20T07:27:46;70.70;;;51.08;;
57746;SDS011;43580;44.014;20.466;2022-11-20T07:30:13;55.38;;;35.35;;
57746;SDS011;43580;44.014;20.466;2022-11-20T07:32:39;57.13;;;36.35;;
57746;SDS011;43580;44.014;20.466;2022-11-20T07:35:05;90.13;;;63.90;;
57746;SDS011;43580;44.014;20.466;2022-11-20T07:37:33;67.82;;;45.75;;
57746;SDS011;43580;44.014;20.466;2022-11-20T07:40:02;55.28;;;39.97;;
57746;SDS011;43580;44.014;20.466;2022-11-20T07:42:28;80.82;;;57.72;;
57746;SDS011;43580;44.014;20.466;2022-11-20T07:44:54;91.43;;;65.43;;
57746;SDS011;43580;44.014;20.466;2022-11-20T07:47:20;44.58;;;32.63;;
57746;SDS011;43580;44.014;20.466;2022-11-20T07:49:49;34.97;;;25.80;;
57746;SDS011;43580;44.014;20.466;2022-11-20T07:52:23;232.73;;;209.10;;
57746;SDS011;43580;44.014;20.466;2022-11-20T07:54:49;39.45;;;26.38;;
57746;SDS011;43580;44.014;20.466;2022-11-20T07:57:15;46.70;;;36.08;;
57746;SDS011;43580;44.014;20.466;2022-11-20T07:59:41;38.83;;;32.85;;
57746;SDS011;43580;44.014;20.466;2022-11-20T08:02:09;54.58;;;39.95;;
57746;SDS011;43580;44.014;20.466;2022-11-20T08:04:36;62.83;;;43.70;;
57746;SDS011;43580;44.014;20.466;2022-11-20T08:07:02;45.97;;;30.90;;
57746;SDS011;43580;44.014;20.466;2022-11-20T08:09:28;122.82;;;109.20;;
57746;SDS011;43580;44.014;20.466;2022-11-20T08:11:54;118.43;;;105.88;;
57746;SDS011;43580;44.014;20.466;2022-11-20T08:14:39;65.18;;;55.92;;
57746;SDS011;43580;44.014;20.466;2022-11-20T08:17:05;41.80;;;32.80;;
57746;SDS011;43580;44.014;20.466;2022-11-20T08:19:31;27.02;;;17.85;;
57746;SDS011;43580;44.014;20.466;2022-11-20T08:21:59;28.05;;;18.58;;
57746;SDS011;43580;44.014;20.466;2022-11-20T08:24:25;33.92;;;23.60;;
57746;SDS011;43580;44.014;20.466;2022-11-20T08:26:51;74.40;;;51.75;;
57746;SDS011;43580;44.014;20.466;2022-11-20T08:29:18;38.95;;;27.95;;
57746;SDS011;43580;44.014;20.466;2022-11-20T08:31:44;37.30;;;26.17;;
57746;SDS011;43580;44.014;20.466;2022-11-20T08:34:10;38.88;;;29.40;;
57746;SDS011;43580;44.014;20.466;2022-11-20T08:36:36;30.75;;;22.67;;
57746;SDS011;43580;44.014;20.466;2022-11-20T08:39:02;26.17;;;18.75;;
57746;SDS011;43580;44.014;20.466;2022-11-20T08:41:28;22.95;;;16.10;;
57746;SDS011;43580;44.014;20.466;2022-11-20T08:44:01;35.63;;;22.67;;
57746;SDS011;43580;44.014;20.466;2022-11-20T08:46:31;31.92;;;19.05;;
57746;SDS011;43580;44.014;20.466;2022-11-20T08:49:01;28.13;;;20.63;;
57746;SDS011;43580;44.014;20.466;2022-11-20T08:51:27;28.77;;;18.63;;
57746;SDS011;43580;44.014;20.466;2022-11-20T08:53:53;27.30;;;18.27;;
57746;SDS011;43580;44.014;20.466;2022-11-20T08:56:22;28.75;;;18.15;;
57746;SDS011;43580;44.014;20.466;2022-11-20T08:58:49;36.63;;;23.63;;
57746;SDS011;43580;44.014;20.466;2022-11-20T09:01:16;29.88;;;18.98;;
57746;SDS011;43580;44.014;20.466;2022-11-20T09:03:45;32.70;;;20.92;;
57746;SDS011;43580;44.014;20.466;2022-11-20T09:06:11;35.03;;;25.17;;
57746;SDS011;43580;44.014;20.466;2022-11-20T09:08:42;30.10;;;20.35;;
57746;SDS011;43580;44.014;20.466;2022-11-20T09:11:08;26.15;;;17.30;;
57746;SDS011;43580;44.014;20.466;2022-11-20T09:13:35;33.28;;;20.63;;
57746;SDS011;43580;44.014;20.466;2022-11-20T09:16:02;44.85;;;27.15;;
57746;SDS011;43580;44.014;20.466;2022-11-20T09:18:30;47.17;;;28.90;;
57746;SDS011;43580;44.014;20.466;2022-11-20T09:21:02;50.58;;;28.48;;
57746;SDS011;43580;44.014;20.466;2022-11-20T09:23:32;60.08;;;35.65;;
57746;SDS011;43580;44.014;20.466;2022-11-20T09:26:01;55.47;;;30.20;;
57746;SDS011;43580;44.014;20.466;2022-11-20T09:28:27;65.60;;;32.28;;
57746;SDS011;43580;44.014;20.466;2022-11-20T09:30:54;76.65;;;34.00;;
57746;SDS011;43580;44.014;20.466;2022-11-20T09:33:20;80.35;;;32.42;;
57746;SDS011;43580;44.014;20.466;2022-11-20T09:35:46;85.65;;;38.60;;
57746;SDS011;43580;44.014;20.466;2022-11-20T09:38:14;91.32;;;42.58;;
57746;SDS011;43580;44.014;20.466;2022-11-20T09:40:44;88.68;;;44.38;;
57746;SDS011;43580;44.014;20.466;2022-11-20T09:45:50;119.10;;;59.90;;
57746;SDS011;43580;44.014;20.466;2022-11-20T09:53:57;116.53;;;59.10;;
57746;SDS011;43580;44.014;20.466;2022-11-20T09:56:26;84.40;;;43.03;;
57746;SDS011;43580;44.014;20.466;2022-11-20T09:58:57;71.07;;;36.33;;
57746;SDS011;43580;44.014;20.466;2022-11-20T10:01:29;98.80;;;49.58;;
57746;SDS011;43580;44.014;20.466;2022-11-20T10:03:58;101.95;;;54.88;;
57746;SDS011;43580;44.014;20.466;2022-11-20T10:06:34;78.20;;;46.20;;
57746;SDS011;43580;44.014;20.466;2022-11-20T10:14:23;82.63;;;57.67;;
57746;SDS011;43580;44.014;20.466;2022-11-20T10:17:02;125.97;;;79.50;;
57746;SDS011;43580;44.014;20.466;2022-11-20T10:19:45;79.75;;;54.47;;
57746;SDS011;43580;44.014;20.466;2022-11-20T10:22:18;89.47;;;44.90;;
57746;SDS011;43580;44.014;20.466;2022-11-20T10:24:56;113.95;;;56.63;;
57746;SDS011;43580;44.014;20.466;2022-11-20T10:30:11;96.60;;;52.95;;
57746;SDS011;43580;44.014;20.466;2022-11-20T10:32:41;103.25;;;52.22;;
57746;SDS011;43580;44.014;20.466;2022-11-20T10:35:22;68.63;;;36.25;;
57746;SDS011;43580;44.014;20.466;2022-11-20T10:37:51;58.58;;;35.22;;
57746;SDS011;43580;44.014;20.466;2022-11-20T10:43:33;142.55;;;79.28;;
57746;SDS011;43580;44.014;20.466;2022-11-20T10:50:33;66.88;;;35.05;;
57746;SDS011;43580;44.014;20.466;2022-11-20T10:55:40;115.40;;;65.82;;
57746;SDS011;43580;44.014;20.466;2022-11-20T11:00:37;91.68;;;50.53;;
57746;SDS011;43580;44.014;20.466;2022-11-20T11:03:20;131.75;;;80.22;;
57746;SDS011;43580;44.014;20.466;2022-11-20T11:06:06;81.95;;;42.97;;
57746;SDS011;43580;44.014;20.466;2022-11-20T11:08:35;83.15;;;47.22;;
57746;SDS011;43580;44.014;20.466;2022-11-20T11:13:43;68.07;;;41.88;;
57746;SDS011;43580;44.014;20.466;2022-11-20T11:16:22;64.13;;;34.17;;
57746;SDS011;43580;44.014;20.466;2022-11-20T11:18:49;74.35;;;40.30;;
57746;SDS011;43580;44.014;20.466;2022-11-20T11:21:22;74.72;;;37.90;;
57746;SDS011;43580;44.014;20.466;2022-11-20T11:23:59;106.20;;;58.80;;
57746;SDS011;43580;44.014;20.466;2022-11-20T11:26:25;76.72;;;42.20;;
57746;SDS011;43580;44.014;20.466;2022-11-20T11:28:52;71.13;;;35.38;;
57746;SDS011;43580;44.014;20.466;2022-11-20T11:31:28;65.38;;;32.90;;
57746;SDS011;43580;44.014;20.466;2022-11-20T11:36:39;96.10;;;50.33;;
57746;SDS011;43580;44.014;20.466;2022-11-20T11:39:08;88.32;;;38.45;;
57746;SDS011;43580;44.014;20.466;2022-11-20T11:41:36;100.45;;;50.08;;
57746;SDS011;43580;44.014;20.466;2022-11-20T11:44:23;98.35;;;43.75;;
57746;SDS011;43580;44.014;20.466;2022-11-20T11:47:20;113.82;;;52.65;;
57746;SDS011;43580;44.014;20.466;2022-11-20T11:49:47;123.03;;;52.60;;
57746;SDS011;43580;44.014;20.466;2022-11-20T11:52:15;120.55;;;62.35;;
57746;SDS011;43580;44.014;20.466;2022-11-20T11:57:16;84.20;;;39.03;;
57746;SDS011;43580;44.014;20.466;2022-11-20T12:00:01;84.03;;;38.60;;
57746;SDS011;43580;44.014;20.466;2022-11-20T12:05:01;65.25;;;36.42;;
57746;SDS011;43580;44.014;20.466;2022-11-20T12:07:41;66.30;;;35.95;;
57746;SDS011;43580;44.014;20.466;2022-11-20T12:10:13;64.68;;;36.15;;
57746;SDS011;43580;44.014;20.466;2022-11-20T12:12:41;82.70;;;42.97;;
57746;SDS011;43580;44.014;20.466;2022-11-20T12:15:09;82.45;;;39.33;;
57746;SDS011;43580;44.014;20.466;2022-11-20T12:17:36;95.38;;;45.60;;
57746;SDS011;43580;44.014;20.466;2022-11-20T12:20:02;102.85;;;44.22;;
57746;SDS011;43580;44.014;20.466;2022-11-20T12:22:35;86.80;;;40.50;;
57746;SDS011;43580;44.014;20.466;2022-11-20T12:25:11;95.15;;;43.47;;
57746;SDS011;43580;44.014;20.466;2022-11-20T12:28:02;92.93;;;39.05;;
57746;SDS011;43580;44.014;20.466;2022-11-20T12:30:32;80.82;;;35.33;;
57746;SDS011;43580;44.014;20.466;2022-11-20T12:38:29;72.32;;;34.63;;
57746;SDS011;43580;44.014;20.466;2022-11-20T12:44:25;57.58;;;34.35;;
57746;SDS011;43580;44.014;20.466;2022-11-20T12:49:52;57.95;;;31.92;;
57746;SDS011;43580;44.014;20.466;2022-11-20T12:54:57;52.25;;;30.33;;
57746;SDS011;43580;44.014;20.466;2022-11-20T13:05:06;68.47;;;32.30;;
57746;SDS011;43580;44.014;20.466;2022-11-20T13:07:35;86.75;;;43.28;;
57746;SDS011;43580;44.014;20.466;2022-11-20T13:10:01;67.05;;;33.55;;
57746;SDS011;43580;44.014;20.466;2022-11-20T13:12:33;79.20;;;46.65;;
57746;SDS011;43580;44.014;20.466;2022-11-20T13:15:05;57.47;;;32.15;;
57746;SDS011;43580;44.014;20.466;2022-11-20T13:17:38;63.05;;;34.08;;
57746;SDS011;43580;44.014;20.466;2022-11-20T13:20:12;63.42;;;41.40;;
57746;SDS011;43580;44.014;20.466;2022-11-20T13:22:43;70.40;;;36.97;;
57746;SDS011;43580;44.014;20.466;2022-11-20T13:25:10;59.47;;;33.65;;
57746;SDS011;43580;44.014;20.466;2022-11-20T13:27:36;56.13;;;30.90;;
57746;SDS011;43580;44.014;20.466;2022-11-20T13:30:14;43.63;;;27.17;;
57746;SDS011;43580;44.014;20.466;2022-11-20T13:32:48;60.30;;;35.20;;
57746;SDS011;43580;44.014;20.466;2022-11-20T13:35:23;43.25;;;27.33;;
57746;SDS011;43580;44.014;20.466;2022-11-20T13:37:58;34.03;;;23.02;;
57746;SDS011;43580;44.014;20.466;2022-11-20T13:40:25;48.95;;;32.58;;
57746;SDS011;43580;44.014;20.466;2022-11-20T13:45:24;31.02;;;20.52;;
57746;SDS011;43580;44.014;20.466;2022-11-20T13:47:51;37.00;;;23.20;;
57746;SDS011;43580;44.014;20.466;2022-11-20T13:50:18;33.95;;;21.30;;
57746;SDS011;43580;44.014;20.466;2022-11-20T14:02:40;23.35;;;15.52;;
57746;SDS011;43580;44.014;20.466;2022-11-20T14:05:12;21.95;;;14.68;;
57746;SDS011;43580;44.014;20.466;2022-11-20T14:07:40;22.42;;;14.85;;
57746;SDS011;43580;44.014;20.466;2022-11-20T14:12:52;22.60;;;15.90;;
57746;SDS011;43580;44.014;20.466;2022-11-20T14:15:25;28.67;;;19.00;;
57746;SDS011;43580;44.014;20.466;2022-11-20T14:17:52;33.28;;;23.45;;
57746;SDS011;43580;44.014;20.466;2022-11-20T14:20:18;25.35;;;16.90;;
57746;SDS011;43580;44.014;20.466;2022-11-20T14:22:51;28.30;;;17.88;;
57746;SDS011;43580;44.014;20.466;2022-11-20T14:27:47;38.45;;;23.80;;
57746;SDS011;43580;44.014;20.466;2022-11-20T14:30:20;61.60;;;38.58;;
57746;SDS011;43580;44.014;20.466;2022-11-20T14:32:46;33.60;;;19.70;;
57746;SDS011;43580;44.014;20.466;2022-11-20T14:35:14;25.10;;;18.27;;
57746;SDS011;43580;44.014;20.466;2022-11-20T14:37:44;33.15;;;20.88;;
57746;SDS011;43580;44.014;20.466;2022-11-20T14:40:23;24.50;;;17.80;;
57746;SDS011;43580;44.014;20.466;2022-11-20T14:42:49;26.50;;;17.75;;
57746;SDS011;43580;44.014;20.466;2022-11-20T14:45:15;19.27;;;13.10;;
57746;SDS011;43580;44.014;20.466;2022-11-20T14:47:42;21.77;;;16.33;;
57746;SDS011;43580;44.014;20.466;2022-11-20T14:50:29;35.78;;;22.77;;
57746;SDS011;43580;44.014;20.466;2022-11-20T14:52:56;29.45;;;19.42;;
57746;SDS011;43580;44.014;20.466;2022-11-20T14:57:56;27.30;;;17.65;;
57746;SDS011;43580;44.014;20.466;2022-11-20T15:00:22;40.95;;;28.98;;
57746;SDS011;43580;44.014;20.466;2022-11-20T15:02:49;44.60;;;32.85;;
57746;SDS011;43580;44.014;20.466;2022-11-20T15:05:16;42.88;;;28.67;;
57746;SDS011;43580;44.014;20.466;2022-11-20T15:07:44;28.70;;;21.65;;
57746;SDS011;43580;44.014;20.466;2022-11-20T15:12:38;22.25;;;16.38;;
57746;SDS011;43580;44.014;20.466;2022-11-20T15:15:04;25.88;;;19.67;;
57746;SDS011;43580;44.014;20.466;2022-11-20T15:17:31;20.05;;;14.30;;
57746;SDS011;43580;44.014;20.466;2022-11-20T15:20:08;21.67;;;16.33;;
57746;SDS011;43580;44.014;20.466;2022-11-20T15:22:35;30.08;;;20.73;;
57746;SDS011;43580;44.014;20.466;2022-11-20T15:25:04;35.38;;;23.08;;
57746;SDS011;43580;44.014;20.466;2022-11-20T15:27:30;17.17;;;11.25;;
57746;SDS011;43580;44.014;20.466;2022-11-20T15:29:56;24.42;;;18.45;;
57746;SDS011;43580;44.014;20.466;2022-11-20T15:32:22;13.27;;;9.43;;
57746;SDS011;43580;44.014;20.466;2022-11-20T15:34:48;90.32;;;68.30;;
57746;SDS011;43580;44.014;20.466;2022-11-20T15:37:15;36.40;;;26.23;;
57746;SDS011;43580;44.014;20.466;2022-11-20T15:39:41;15.23;;;10.10;;